sim
Sign-in with your pilot id or email,
or register
Callsign
Passwort

Schedule Details

Flight Number: UAE516
Departure: Dubai International Airport (OMDB) at 06:00
Arrival: Delhi Indira Gandhi International Airport (VIDP) at 09:15
Route: Emirates Passenger Schedule. Enter filed route here before submitting Pirep.

Weather Information
Getting current METAR information for OMDB 271700Z 03004KT CAVOK 29/16 Q1014 NOSIG
Getting current METAR information for VIDP 271730Z 00000KT 2500 FU NSC 21/15 Q1013 NOSIG

Schedule Frequency

Route Map